Time;durP1;ratioP1;P1;durP2;ratioP2;P2;SDS_P1;SDS_P2;PMS_P1;PMS_P2;Temp;Humidity;BMP_temperature;BMP_pressure;BME280_temperature;BME280_humidity;BME280_pressure;Samples;Min_cycle;Max_cycle;Signal;HPM_P1;HPM_P2
2022/10/28 00:01:02;;;;;;;;;;;;;;;18.98;41.40;100093.28;5026058;28;19917;-79
2022/10/28 00:03:28;;;;;;;;;;;;;;;18.94;41.53;100087.44;5031213;28;20375;-79
2022/10/28 00:05:53;;;;;;;;;;;;;;;18.91;41.63;100090.34;5014067;28;19917;-79
2022/10/28 00:08:19;;;;;;;;;;;;;;;18.89;41.64;100088.81;5013442;28;19917;-79
2022/10/28 00:10:44;;;;;;;;;;;;;;;18.86;41.72;100087.25;5031119;28;19917;-79
2022/10/28 00:13:09;;;;;;;;;;;;;;;18.82;41.74;100085.84;5013553;28;19957;-79
2022/10/28 00:15:34;;;;;;;;;;;;;;;18.80;41.69;100085.13;5012742;28;20358;-79
2022/10/28 00:18:00;;;;;;;;;;;;;;;18.79;41.78;100086.13;5031303;28;19931;-79
2022/10/28 00:20:25;;;;;;;;;;;;;;;18.77;41.83;100086.25;5031173;28;20288;-79
2022/10/28 00:22:50;;;;;;;;;;;;;;;18.74;41.89;100081.25;5029525;28;19925;-79
2022/10/28 00:25:16;;;;;;;;;;;;;;;18.76;41.88;100078.47;5013228;28;20376;-80
2022/10/28 00:27:42;;;;;;;;;;;;;;;18.73;41.92;100076.09;5031104;28;19927;-80
2022/10/28 00:30:08;;;;;;;;;;;;;;;18.72;41.84;100074.41;5013426;28;19920;-80
2022/10/28 00:32:33;;;;;;;;;;;;;;;18.70;41.89;100068.41;5013511;28;20344;-80
2022/10/28 00:34:59;;;;;;;;;;;;;;;18.68;41.89;100071.19;5026626;28;20339;-80
2022/10/28 00:37:24;;;;;;;;;;;;;;;18.67;41.90;100066.88;5013226;28;19918;-80
2022/10/28 00:39:49;;;;;;;;;;;;;;;18.66;41.94;100070.50;5013755;28;20411;-80
2022/10/28 00:42:17;;;;;;;;;;;;;;;18.65;42.08;100075.94;5013156;28;19937;-80
2022/10/28 00:44:52;;;;;;;;;;;;;;;18.62;42.04;100069.94;5012822;28;19921;-81
2022/10/28 00:47:20;;;;;;;;;;;;;;;18.59;42.24;100079.94;5013354;28;20407;-81
2022/10/28 00:49:46;;;;;;;;;;;;;;;18.56;42.27;100070.47;5031834;28;19921;-81
2022/10/28 00:52:17;;;;;;;;;;;;;;;18.53;42.17;100072.56;5037418;28;20660;-81
2022/10/28 00:54:42;;;;;;;;;;;;;;;18.51;42.25;100066.59;5025373;28;19928;-80
2022/10/28 00:57:09;;;;;;;;;;;;;;;18.48;42.39;100072.97;5013498;28;19921;-80
2022/10/28 00:59:35;;;;;;;;;;;;;;;18.47;42.46;100073.94;5012995;28;19917;-80
2022/10/28 01:02:00;;;;;;;;;;;;;;;18.43;42.31;100078.66;5025929;28;20350;-81
2022/10/28 01:04:26;;;;;;;;;;;;;;;18.42;42.54;100077.00;5030959;28;19923;-80
2022/10/28 01:06:51;;;;;;;;;;;;;;;18.39;42.52;100071.97;5013669;28;19921;-80
2022/10/28 01:09:16;;;;;;;;;;;;;;;18.37;42.58;100084.47;5030674;28;19921;-80
2022/10/28 01:11:49;;;;;;;;;;;;;;;18.36;42.51;100072.25;5028967;28;19924;-80
2022/10/28 01:14:15;;;;;;;;;;;;;;;18.31;42.70;100082.41;5012623;28;20292;-80
2022/10/28 01:16:43;;;;;;;;;;;;;;;18.31;42.63;100078.91;5007800;28;19925;-80
2022/10/28 01:19:12;;;;;;;;;;;;;;;18.29;42.76;100078.19;5012976;28;19921;-81
2022/10/28 01:21:37;;;;;;;;;;;;;;;18.28;42.72;100077.38;5030388;28;19925;-79
2022/10/28 01:24:02;;;;;;;;;;;;;;;18.23;42.75;100077.78;5030546;28;19921;-79
2022/10/28 01:26:46;;;;;;;;;;;;;;;18.23;42.70;100076.91;5030672;28;19918;-80
2022/10/28 01:29:28;;;;;;;;;;;;;;;18.18;42.80;100074.69;5030757;28;19917;-81
2022/10/28 01:32:09;;;;;;;;;;;;;;;18.15;43.07;100069.66;5014779;28;20017;-80
2022/10/28 01:34:36;;;;;;;;;;;;;;;18.13;43.04;100076.06;5014608;28;19940;-79
2022/10/28 01:37:10;;;;;;;;;;;;;;;18.08;42.94;100073.81;5010980;28;19928;-79
2022/10/28 01:39:38;;;;;;;;;;;;;;;18.07;42.95;100070.34;5033773;28;19925;-79
2022/10/28 01:42:04;;;;;;;;;;;;;;;18.04;43.20;100075.91;5016350;28;19946;-79
2022/10/28 01:44:33;;;;;;;;;;;;;;;18.01;43.14;100065.59;5033743;28;19917;-79
2022/10/28 01:47:08;;;;;;;;;;;;;;;18.00;43.17;100066.53;5016070;28;19960;-79
2022/10/28 01:49:38;;;;;;;;;;;;;;;17.98;43.23;100067.63;5015967;28;19968;-79
2022/10/28 01:52:04;;;;;;;;;;;;;;;17.97;43.32;100069.44;5011624;28;19929;-80
2022/10/28 01:54:30;;;;;;;;;;;;;;;17.94;43.12;100069.72;5016160;28;19925;-80
2022/10/28 01:56:55;;;;;;;;;;;;;;;17.92;43.37;100070.81;5015983;28;19917;-80
2022/10/28 01:59:24;;;;;;;;;;;;;;;17.90;43.36;100076.25;5016200;28;19921;-80
2022/10/28 02:01:49;;;;;;;;;;;;;;;17.88;43.51;100073.75;5015855;28;19920;-79
2022/10/28 02:04:15;;;;;;;;;;;;;;;17.84;43.52;100066.16;5015743;28;19921;-79
2022/10/28 02:06:41;;;;;;;;;;;;;;;17.82;43.40;100071.59;5033547;28;20306;-79
2022/10/28 02:09:06;;;;;;;;;;;;;;;17.79;43.50;100081.56;5016168;28;20383;-78
2022/10/28 02:11:32;;;;;;;;;;;;;;;17.75;43.66;100075.69;5033418;28;20019;-78
2022/10/28 02:14:00;;;;;;;;;;;;;;;17.74;43.58;100074.03;5015107;28;19928;-77
2022/10/28 02:16:44;;;;;;;;;;;;;;;17.70;43.70;100076.09;5015449;28;19921;-76
2022/10/28 02:19:25;;;;;;;;;;;;;;;17.70;43.68;100075.28;5030003;28;19956;-76
2022/10/28 02:22:09;;;;;;;;;;;;;;;17.68;43.81;100077.22;5012212;28;19921;-76
2022/10/28 02:24:53;;;;;;;;;;;;;;;17.67;43.66;100070.25;5013297;28;19927;-76
2022/10/28 02:27:24;;;;;;;;;;;;;;;17.63;43.78;100068.81;5032481;28;19917;-76
2022/10/28 02:29:52;;;;;;;;;;;;;;;17.60;43.98;100072.56;5015329;28;19917;-76
2022/10/28 02:32:18;;;;;;;;;;;;;;;17.58;43.84;100065.75;5014695;28;19921;-76
2022/10/28 02:34:45;;;;;;;;;;;;;;;17.58;43.90;100066.56;5015058;28;19921;-76
2022/10/28 02:37:11;;;;;;;;;;;;;;;17.56;44.02;100063.22;5015047;28;20029;-76
2022/10/28 02:39:41;;;;;;;;;;;;;;;17.54;43.78;100067.81;5014334;28;20055;-76
2022/10/28 02:42:11;;;;;;;;;;;;;;;17.53;43.84;100076.69;5015215;28;19959;-76
2022/10/28 02:44:38;;;;;;;;;;;;;;;17.50;43.94;100071.66;5014896;28;19925;-76
2022/10/28 02:47:08;;;;;;;;;;;;;;;17.49;44.07;100072.63;5015047;28;19921;-75
2022/10/28 02:49:34;;;;;;;;;;;;;;;17.47;44.05;100078.06;5014767;28;19921;-75
2022/10/28 02:52:00;;;;;;;;;;;;;;;17.48;43.94;100087.63;5014667;28;20398;-77
2022/10/28 02:54:31;;;;;;;;;;;;;;;17.45;43.96;100087.88;5014669;28;19917;-76
2022/10/28 02:56:56;;;;;;;;;;;;;;;17.43;43.94;100087.19;5014906;28;19948;-77
2022/10/28 02:59:25;;;;;;;;;;;;;;;17.41;44.16;100082.97;5032424;28;20383;-77
2022/10/28 03:01:50;;;;;;;;;;;;;;;17.40;44.11;100091.88;5014699;28;19917;-76
2022/10/28 03:04:15;;;;;;;;;;;;;;;17.36;44.24;100078.09;5014455;28;20288;-77
2022/10/28 03:06:40;;;;;;;;;;;;;;;17.33;44.18;100081.84;5015098;28;19924;-77
2022/10/28 03:09:06;;;;;;;;;;;;;;;17.33;44.27;100088.91;5014609;28;19957;-76
2022/10/28 03:11:31;;;;;;;;;;;;;;;17.32;44.46;100084.59;5014987;28;20394;-77
2022/10/28 03:13:56;;;;;;;;;;;;;;;17.29;44.54;100079.59;5031863;28;19935;-76
2022/10/28 03:16:22;;;;;;;;;;;;;;;17.29;44.29;100084.84;5014824;28;20293;-77
2022/10/28 03:18:47;;;;;;;;;;;;;;;17.27;44.46;100086.78;5031953;28;19924;-77
2022/10/28 03:21:12;;;;;;;;;;;;;;;17.26;44.43;100085.13;5013845;28;19921;-77
2022/10/28 03:23:38;;;;;;;;;;;;;;;17.23;44.75;100088.00;4997875;28;19917;-77
2022/10/28 03:26:03;;;;;;;;;;;;;;;17.20;44.74;100086.44;5014480;28;19956;-77
2022/10/28 03:28:28;;;;;;;;;;;;;;;17.18;44.74;100086.56;5018789;28;19956;-80
2022/10/28 03:30:54;;;;;;;;;;;;;;;17.18;44.48;100088.38;5015089;28;19917;-80
2022/10/28 03:33:19;;;;;;;;;;;;;;;17.16;44.83;100088.50;5032123;28;19917;-80
2022/10/28 03:35:44;;;;;;;;;;;;;;;17.15;44.59;100088.63;5013962;28;19917;-79
2022/10/28 03:38:10;;;;;;;;;;;;;;;17.15;44.75;100089.47;5014460;28;19921;-81
2022/10/28 03:40:35;;;;;;;;;;;;;;;17.14;44.65;100089.59;5014799;28;20434;-82
2022/10/28 03:43:00;;;;;;;;;;;;;;;17.22;49.49;100094.22;5013774;28;20406;-78
2022/10/28 03:45:26;;;;;;;;;;;;;;;17.21;47.73;100090.78;5014256;28;20003;-76
2022/10/28 03:47:51;;;;;;;;;;;;;;;17.21;47.58;100093.41;5014195;28;19971;-89
2022/10/28 03:50:16;;;;;;;;;;;;;;;17.19;47.50;100087.44;5012327;28;19975;-83
2022/10/28 03:52:43;;;;;;;;;;;;;;;17.18;47.49;100086.56;5014606;28;19928;-86
2022/10/28 03:55:08;;;;;;;;;;;;;;;17.17;47.22;100087.56;5031980;28;19917;-84
2022/10/28 03:57:33;;;;;;;;;;;;;;;17.14;47.02;100098.34;4998333;28;20358;-80
2022/10/28 03:59:59;;;;;;;;;;;;;;;17.12;47.24;100095.00;5031604;28;20394;-78
2022/10/28 04:02:25;;;;;;;;;;;;;;;17.25;53.62;100091.34;5030068;28;20396;-73
2022/10/28 04:04:50;;;;;;;;;;;;;;;17.34;52.67;100091.41;5016684;28;19917;-78
2022/10/28 04:07:16;;;;;;;;;;;;;;;17.45;52.26;100097.63;5015897;28;19917;-76
2022/10/28 04:09:41;;;;;;;;;;;;;;;17.41;52.10;100096.19;5014705;28;19917;-74
2022/10/28 04:12:08;;;;;;;;;;;;;;;17.53;56.95;100088.06;5030340;28;20307;-78
2022/10/28 04:14:33;;;;;;;;;;;;;;;18.04;54.69;100082.97;5014857;28;19959;-80
2022/10/28 04:16:58;;;;;;;;;;;;;;;18.32;51.96;100089.34;5028666;28;20002;-82
2022/10/28 04:19:24;;;;;;;;;;;;;;;18.57;49.50;100087.19;5012279;28;20388;-80
2022/10/28 04:21:49;;;;;;;;;;;;;;;18.75;47.70;100087.34;5013022;28;20426;-81
2022/10/28 04:24:16;;;;;;;;;;;;;;;18.89;46.62;100087.00;5012345;28;20395;-81
2022/10/28 04:26:41;;;;;;;;;;;;;;;19.03;45.92;100091.03;5016413;28;20320;-80
2022/10/28 04:29:06;;;;;;;;;;;;;;;19.14;45.41;100084.78;5013483;28;19917;-79
2022/10/28 04:31:32;;;;;;;;;;;;;;;19.22;44.87;100092.84;5014007;28;19924;-79
2022/10/28 04:33:57;;;;;;;;;;;;;;;19.27;45.70;100093.25;5015102;28;20408;-78
2022/10/28 04:36:22;;;;;;;;;;;;;;;19.04;43.17;100086.56;5008351;28;20439;-79
2022/10/28 04:38:50;;;;;;;;;;;;;;;18.76;43.61;100081.09;5030955;28;19917;-77
2022/10/28 04:41:16;;;;;;;;;;;;;;;18.49;43.74;100085.22;5013378;28;19924;-77
2022/10/28 04:43:42;;;;;;;;;;;;;;;18.23;44.13;100088.34;5013421;28;20306;-76
2022/10/28 04:46:07;;;;;;;;;;;;;;;18.00;44.27;100079.75;5013097;28;20456;-79
2022/10/28 04:48:33;;;;;;;;;;;;;;;17.78;44.62;100088.66;5013274;28;20000;-77
2022/10/28 04:50:58;;;;;;;;;;;;;;;17.62;44.67;100098.84;5013563;28;20406;-77
2022/10/28 04:53:23;;;;;;;;;;;;;;;17.46;44.70;100086.94;5013230;28;19921;-79
2022/10/28 04:55:49;;;;;;;;;;;;;;;17.32;45.12;100096.00;5013314;28;19917;-79
2022/10/28 04:58:14;;;;;;;;;;;;;;;17.24;45.07;100098.44;5013234;28;20354;-81
2022/10/28 05:00:39;;;;;;;;;;;;;;;17.18;45.25;100096.28;5013293;28;20012;-78
2022/10/28 05:03:05;;;;;;;;;;;;;;;17.28;45.30;100094.56;5015263;28;19917;-78
2022/10/28 05:05:30;;;;;;;;;;;;;;;17.36;45.04;100089.50;5017127;28;19970;-78
2022/10/28 05:07:55;;;;;;;;;;;;;;;17.57;44.29;100091.31;5017024;28;19940;-81
2022/10/28 05:10:21;;;;;;;;;;;;;;;17.89;43.54;100091.25;5017540;28;19957;-82
2022/10/28 05:12:46;;;;;;;;;;;;;;;18.17;42.97;100090.66;5017133;28;20003;-76
2022/10/28 05:15:12;;;;;;;;;;;;;;;18.45;42.21;100091.75;5000316;28;19944;-79
2022/10/28 05:17:38;;;;;;;;;;;;;;;18.74;41.46;100097.13;5016206;28;19929;-79
2022/10/28 05:20:04;;;;;;;;;;;;;;;19.03;40.74;100106.09;5010501;28;20391;-79
2022/10/28 05:22:29;;;;;;;;;;;;;;;19.30;40.19;100106.22;5015488;28;19917;-78
2022/10/28 05:24:55;;;;;;;;;;;;;;;19.65;39.42;100107.44;5016248;28;20404;-78
2022/10/28 05:27:20;;;;;;;;;;;;;;;19.95;38.80;100105.59;5016387;28;20403;-79
2022/10/28 05:29:45;;;;;;;;;;;;;;;20.25;38.30;100114.28;5016589;28;19940;-81
2022/10/28 05:32:10;;;;;;;;;;;;;;;20.50;37.67;100115.41;5016676;28;19921;-78
2022/10/28 05:34:36;;;;;;;;;;;;;;;20.70;37.15;100108.22;5016626;28;19917;-79
2022/10/28 05:37:01;;;;;;;;;;;;;;;20.94;36.89;100114.78;5000118;28;20016;-79
2022/10/28 05:39:26;;;;;;;;;;;;;;;21.15;36.48;100111.81;5016303;28;19917;-79
2022/10/28 05:41:52;;;;;;;;;;;;;;;21.50;36.13;100115.44;5016567;28;19917;-80
2022/10/28 05:44:17;;;;;;;;;;;;;;;21.79;35.51;100117.84;5016574;28;20021;-80
2022/10/28 05:46:42;;;;;;;;;;;;;;;22.13;35.20;100121.50;5016204;28;19924;-78
2022/10/28 05:49:08;;;;;;;;;;;;;;;22.57;34.37;100122.22;5016072;28;19917;-78
2022/10/28 05:51:33;;;;;;;;;;;;;;;23.02;33.37;100120.16;5016319;28;19917;-79
2022/10/28 05:53:58;;;;;;;;;;;;;;;23.49;32.70;100121.41;5032419;28;19925;-79
2022/10/28 05:56:24;;;;;;;;;;;;;;;23.96;32.04;100126.03;5016198;28;19921;-78
2022/10/28 05:58:49;;;;;;;;;;;;;;;24.41;31.30;100131.72;5016046;28;20000;-78
2022/10/28 06:01:14;;;;;;;;;;;;;;;24.83;30.55;100132.41;5016031;28;19929;-78
2022/10/28 06:03:40;;;;;;;;;;;;;;;25.22;29.92;100136.78;5015740;28;20174;-80
2022/10/28 06:06:05;;;;;;;;;;;;;;;25.63;29.22;100140.03;5015846;28;19977;-80
2022/10/28 06:08:30;;;;;;;;;;;;;;;26.03;28.26;100137.16;5015827;28;19921;-77
2022/10/28 06:10:56;;;;;;;;;;;;;;;26.40;27.88;100147.94;5015932;28;20379;-78
2022/10/28 06:13:21;;;;;;;;;;;;;;;26.80;27.01;100151.13;5014815;28;19917;-78
2022/10/28 06:15:50;;;;;;;;;;;;;;;27.22;26.36;100144.97;5015061;28;20418;-76
2022/10/28 06:18:16;;;;;;;;;;;;;;;27.70;25.95;100151.59;5015415;28;20455;-79
2022/10/28 06:20:41;;;;;;;;;;;;;;;28.29;25.00;100148.50;5028897;28;20040;-80
2022/10/28 06:23:06;;;;;;;;;;;;;;;28.95;24.24;100147.09;5015338;28;19967;-79
2022/10/28 06:25:32;;;;;;;;;;;;;;;29.76;23.04;100154.25;5015445;28;19960;-77
2022/10/28 06:27:57;;;;;;;;;;;;;;;30.65;22.13;100148.47;5014754;28;19950;-78
2022/10/28 06:30:23;;;;;;;;;;;;;;;31.59;20.86;100153.28;5015482;28;20304;-77
2022/10/28 06:32:48;;;;;;;;;;;;;;;32.52;19.85;100155.03;5015818;28;19917;-77
2022/10/28 06:35:14;;;;;;;;;;;;;;;33.39;18.73;100145.72;5015728;28;19917;-78
2022/10/28 06:37:39;;;;;;;;;;;;;;;34.22;18.23;100153.84;5015431;28;19924;-77
2022/10/28 06:40:05;;;;;;;;;;;;;;;34.95;17.46;100151.53;5015741;28;19929;-78
2022/10/28 06:42:30;;;;;;;;;;;;;;;35.60;16.59;100146.66;5015886;28;19924;-77
2022/10/28 06:44:55;;;;;;;;;;;;;;;36.06;16.32;100155.47;5015351;28;19964;-77
2022/10/28 06:47:21;;;;;;;;;;;;;;;36.30;15.79;100150.63;5015140;28;19921;-76
2022/10/28 06:49:46;;;;;;;;;;;;;;;36.32;15.84;100156.63;5014983;28;19917;-78
2022/10/28 06:52:11;;;;;;;;;;;;;;;36.25;15.95;100156.00;5033301;28;19924;-77
2022/10/28 06:54:37;;;;;;;;;;;;;;;35.84;16.37;100161.69;4998817;28;19917;-80
2022/10/28 06:57:02;;;;;;;;;;;;;;;35.38;16.84;100157.44;5015353;28;19961;-80
2022/10/28 06:59:27;;;;;;;;;;;;;;;34.85;17.58;100152.16;5015045;28;19971;-76
2022/10/28 07:01:52;;;;;;;;;;;;;;;34.56;17.97;100151.31;5014976;28;19963;-76
2022/10/28 07:04:18;;;;;;;;;;;;;;;34.32;18.47;100159.50;5014652;28;20056;-79
2022/10/28 07:06:43;;;;;;;;;;;;;;;34.15;18.42;100161.28;5014942;28;19917;-77
2022/10/28 07:09:10;;;;;;;;;;;;;;;34.00;18.68;100154.47;5014928;28;19917;-78
2022/10/28 07:11:35;;;;;;;;;;;;;;;33.89;18.51;100153.41;5015144;28;19928;-80
2022/10/28 07:14:00;;;;;;;;;;;;;;;33.76;18.44;100150.13;5014579;28;19921;-79
2022/10/28 07:16:26;;;;;;;;;;;;;;;33.62;18.93;100147.63;5014825;28;19973;-80
2022/10/28 07:18:51;;;;;;;;;;;;;;;33.53;19.41;100152.56;5014859;28;20372;-79
2022/10/28 07:21:17;;;;;;;;;;;;;;;33.51;19.01;100160.09;5014734;28;20332;-79
2022/10/28 07:23:42;;;;;;;;;;;;;;;33.47;19.71;100148.06;5014793;28;19924;-77
2022/10/28 07:26:07;;;;;;;;;;;;;;;33.51;19.47;100149.28;5013657;28;19917;-79
2022/10/28 07:28:33;;;;;;;;;;;;;;;33.58;19.58;100148.34;5014281;28;20051;-79
2022/10/28 07:30:59;;;;;;;;;;;;;;;33.69;19.41;100145.63;5014436;28;19928;-78
2022/10/28 07:33:25;;;;;;;;;;;;;;;33.75;19.56;100149.31;5015436;28;19925;-78
2022/10/28 07:35:50;;;;;;;;;;;;;;;33.82;19.22;100151.88;5031511;28;19921;-78
2022/10/28 07:38:15;;;;;;;;;;;;;;;33.82;19.34;100150.00;5031029;28;19944;-78
2022/10/28 07:40:41;;;;;;;;;;;;;;;33.89;19.64;100150.72;5014578;28;19921;-77
2022/10/28 07:43:06;;;;;;;;;;;;;;;33.94;18.90;100149.16;5014202;28;19921;-79
2022/10/28 07:45:33;;;;;;;;;;;;;;;33.96;19.53;100155.19;5014892;28;19971;-77
2022/10/28 07:47:58;;;;;;;;;;;;;;;33.99;19.29;100155.53;5014347;28;19917;-79
2022/10/28 07:50:23;;;;;;;;;;;;;;;34.07;19.00;100157.06;5014364;28;19917;-79
2022/10/28 07:52:48;;;;;;;;;;;;;;;34.11;19.40;100155.53;5014125;28;19944;-77
2022/10/28 07:55:14;;;;;;;;;;;;;;;34.17;18.96;100156.44;5014358;28;19917;-77
2022/10/28 07:57:39;;;;;;;;;;;;;;;34.24;19.02;100149.88;5015151;28;19931;-77
2022/10/28 08:00:05;;;;;;;;;;;;;;;34.26;19.32;100155.03;5031707;28;19968;-77
2022/10/28 08:02:30;;;;;;;;;;;;;;;34.27;19.35;100148.56;5014506;28;19921;-78
2022/10/28 08:04:56;;;;;;;;;;;;;;;34.34;19.03;100157.38;4997957;28;19921;-77
2022/10/28 08:07:21;;;;;;;;;;;;;;;34.38;18.78;100147.72;5014219;28;19917;-78
2022/10/28 08:09:46;;;;;;;;;;;;;;;34.48;18.63;100146.28;5013839;28;19968;-79
2022/10/28 08:12:12;;;;;;;;;;;;;;;34.49;18.85;100147.91;5013956;28;19917;-78
2022/10/28 08:14:37;;;;;;;;;;;;;;;34.60;18.67;100147.03;5013781;28;19921;-77
2022/10/28 08:17:02;;;;;;;;;;;;;;;34.66;18.31;100148.78;5013738;28;19921;-77
2022/10/28 08:19:28;;;;;;;;;;;;;;;34.73;18.48;100143.22;5013480;28;19917;-77
2022/10/28 08:21:53;;;;;;;;;;;;;;;34.79;18.36;100137.69;5013840;28;20008;-77
2022/10/28 08:24:18;;;;;;;;;;;;;;;34.84;18.39;100136.97;5013563;28;19956;-78
2022/10/28 08:26:44;;;;;;;;;;;;;;;34.95;18.31;100140.69;5013462;28;19960;-77
2022/10/28 08:29:10;;;;;;;;;;;;;;;35.06;18.39;100137.06;5013940;28;19918;-77
2022/10/28 08:31:36;;;;;;;;;;;;;;;35.09;18.04;100133.03;5013552;28;19917;-78
2022/10/28 08:34:01;;;;;;;;;;;;;;;35.11;18.03;100129.00;5013391;28;19925;-78
2022/10/28 08:36:27;;;;;;;;;;;;;;;35.15;18.08;100132.06;5013708;28;19921;-78
2022/10/28 08:38:52;;;;;;;;;;;;;;;35.23;18.02;100128.09;5013755;28;19917;-77
2022/10/28 08:41:32;;;;;;;;;;;;;;;35.30;17.58;100123.38;5013397;28;20414;-79
2022/10/28 08:43:58;;;;;;;;;;;;;;;35.34;17.72;100127.22;5011695;28;19925;-77
2022/10/28 08:46:35;;;;;;;;;;;;;;;35.39;17.73;100126.50;5013436;28;19925;-79
2022/10/28 08:49:01;;;;;;;;;;;;;;;35.55;17.45;100124.81;5031286;28;19921;-76
2022/10/28 08:51:47;;;;;;;;;;;;;;;35.63;17.19;100127.13;5029864;28;20446;-75
2022/10/28 08:54:20;;;;;;;;;;;;;;;35.72;17.31;100133.78;5011855;28;19924;-80
2022/10/28 08:56:47;;;;;;;;;;;;;;;35.88;17.06;100129.41;5008704;28;19917;-77
2022/10/28 08:59:23;;;;;;;;;;;;;;;36.36;16.38;100132.50;5013791;28;19924;-78
2022/10/28 09:01:50;;;;;;;;;;;;;;;37.24;15.70;100123.31;5009167;28;19917;-78
2022/10/28 09:04:35;;;;;;;;;;;;;;;38.03;14.69;100121.66;5013297;28;19923;-78
2022/10/28 09:07:01;;;;;;;;;;;;;;;38.76;14.08;100120.00;4941846;29;19982;-80
2022/10/28 09:09:26;;;;;;;;;;;;;;;38.90;14.16;100123.81;4940267;29;19926;-78
2022/10/28 09:11:54;;;;;;;;;;;;;;;38.78;14.12;100117.81;4922599;29;20465;-77
2022/10/28 09:14:33;;;;;;;;;;;;;;;38.32;14.48;100115.81;4939592;29;20050;-78
2022/10/28 09:17:27;;;;;;;;;;;;;;;37.89;14.91;100106.88;4924349;29;20459;-76
2022/10/28 09:19:56;;;;;;;;;;;;;;;37.68;14.54;100105.91;4932700;28;19919;-79
2022/10/28 09:22:33;;;;;;;;;;;;;;;37.55;14.45;100094.41;4923867;29;19922;-78
2022/10/28 09:24:58;;;;;;;;;;;;;;;37.54;14.42;100103.66;4925693;29;20005;-78
2022/10/28 09:27:53;;;;;;;;;;;;;;;37.40;14.32;100094.28;4940006;28;20520;-77
2022/10/28 09:30:44;;;;;;;;;;;;;;;37.39;14.54;100090.75;4930980;29;19919;-77
2022/10/28 09:33:12;;;;;;;;;;;;;;;37.33;14.48;100088.28;4938224;29;19953;-80
2022/10/28 09:35:39;;;;;;;;;;;;;;;37.24;14.59;100086.06;4933477;29;19923;-77
2022/10/28 09:38:13;;;;;;;;;;;;;;;37.13;14.85;100081.56;4921390;29;20373;-78
2022/10/28 09:40:39;;;;;;;;;;;;;;;37.14;15.10;100088.66;4924042;29;20444;-79
2022/10/28 09:43:23;;;;;;;;;;;;;;;37.18;15.25;100073.44;4929174;28;20010;-78
2022/10/28 09:45:49;;;;;;;;;;;;;;;37.24;14.55;100069.72;4989792;28;19953;-76
2022/10/28 09:48:28;;;;;;;;;;;;;;;37.19;14.47;100066.09;4973370;28;20015;-76
2022/10/28 09:50:54;;;;;;;;;;;;;;;37.15;14.42;100068.53;4990360;28;20032;-79
2022/10/28 09:53:22;;;;;;;;;;;;;;;36.98;14.22;100067.84;4994649;28;20402;-77
2022/10/28 09:55:48;;;;;;;;;;;;;;;36.94;14.23;100062.94;4988721;28;19934;-77
2022/10/28 09:58:13;;;;;;;;;;;;;;;36.84;14.11;100059.28;4977176;28;19925;-78
2022/10/28 10:00:39;;;;;;;;;;;;;;;36.69;14.10;100057.22;4976524;28;19917;-77
2022/10/28 10:03:04;;;;;;;;;;;;;;;36.40;14.00;100049.34;4994110;28;19921;-81
2022/10/28 10:05:30;;;;;;;;;;;;;;;36.24;14.27;100048.31;4993181;28;20381;-77
2022/10/28 10:08:00;;;;;;;;;;;;;;;36.04;14.30;100049.75;4993059;28;19924;-78
2022/10/28 10:10:44;;;;;;;;;;;;;;;35.89;14.71;100049.56;4987810;28;20385;-78
2022/10/28 10:13:10;;;;;;;;;;;;;;;35.76;14.58;100048.03;4988842;28;19917;-82
2022/10/28 10:15:36;;;;;;;;;;;;;;;35.53;14.64;100040.91;4988825;28;19921;-78
2022/10/28 10:18:02;;;;;;;;;;;;;;;35.31;15.22;100040.88;5012478;28;19948;-78
2022/10/28 10:20:28;;;;;;;;;;;;;;;35.21;15.33;100038.78;5012137;28;19922;-78
2022/10/28 10:22:53;;;;;;;;;;;;;;;35.10;15.36;100029.69;5012408;28;19925;-78
2022/10/28 10:25:18;;;;;;;;;;;;;;;34.98;15.47;100034.34;5012389;28;20397;-77
2022/10/28 10:27:50;;;;;;;;;;;;;;;34.64;15.12;100026.19;5013464;28;19933;-77
2022/10/28 10:30:17;;;;;;;;;;;;;;;34.45;15.34;100027.50;5012176;28;19975;-77
2022/10/28 10:32:45;;;;;;;;;;;;;;;34.19;15.36;100021.53;4996030;28;19924;-78
2022/10/28 10:35:14;;;;;;;;;;;;;;;34.09;15.98;100024.88;5012723;28;19917;-76
2022/10/28 10:37:43;;;;;;;;;;;;;;;33.85;16.15;100033.06;5011621;28;19924;-79
2022/10/28 10:40:12;;;;;;;;;;;;;;;33.57;16.07;100019.44;5007255;28;20343;-77
2022/10/28 10:42:37;;;;;;;;;;;;;;;33.29;16.19;100018.28;5013265;28;19921;-78
2022/10/28 10:45:18;;;;;;;;;;;;;;;33.23;16.58;100013.84;5012092;28;19926;-79
2022/10/28 10:47:43;;;;;;;;;;;;;;;33.12;16.49;100005.44;5012436;28;19917;-79
2022/10/28 10:50:19;;;;;;;;;;;;;;;32.98;16.76;100014.84;5011847;28;20079;-77
2022/10/28 10:52:49;;;;;;;;;;;;;;;32.81;16.84;100012.00;5009224;28;19918;-78
2022/10/28 10:55:19;;;;;;;;;;;;;;;32.64;16.80;100003.75;5011880;28;19924;-77
2022/10/28 10:57:45;;;;;;;;;;;;;;;32.52;16.96;100005.56;5012000;28;19921;-78
2022/10/28 11:00:13;;;;;;;;;;;;;;;32.40;17.09;99994.72;5011913;28;20015;-79
2022/10/28 11:02:39;;;;;;;;;;;;;;;32.29;17.48;99990.91;5011770;28;20048;-78
2022/10/28 11:05:07;;;;;;;;;;;;;;;32.23;17.73;99997.22;5011590;28;20020;-77
2022/10/28 11:07:33;;;;;;;;;;;;;;;32.09;17.83;99996.59;5011922;28;19970;-78
2022/10/28 11:09:58;;;;;;;;;;;;;;;31.93;17.88;99996.16;5011726;28;19921;-78
2022/10/28 11:12:27;;;;;;;;;;;;;;;31.75;18.03;99993.47;5012032;28;19941;-79
2022/10/28 11:14:54;;;;;;;;;;;;;;;31.63;17.88;99988.00;5011395;28;19980;-78
2022/10/28 11:17:23;;;;;;;;;;;;;;;31.47;18.45;99996.63;5011417;28;19922;-78
2022/10/28 11:19:49;;;;;;;;;;;;;;;31.30;18.62;99985.63;5023108;28;19922;-78
2022/10/28 11:22:14;;;;;;;;;;;;;;;31.09;18.20;99979.59;5011957;28;19924;-78
2022/10/28 11:25:00;;;;;;;;;;;;;;;30.87;18.71;99978.31;5011205;28;19924;-75
2022/10/28 11:27:47;;;;;;;;;;;;;;;30.65;18.73;99976.81;5012505;28;20455;-77
2022/10/28 11:30:13;;;;;;;;;;;;;;;30.47;19.00;99976.72;5007545;28;20503;-77
2022/10/28 11:32:52;;;;;;;;;;;;;;;30.39;19.32;99968.91;5011135;28;19956;-79
2022/10/28 11:35:26;;;;;;;;;;;;;;;30.25;19.28;99966.28;5008916;28;19917;-75
2022/10/28 11:37:51;;;;;;;;;;;;;;;30.03;19.94;99963.09;5007250;28;20028;-78
2022/10/28 11:40:30;;;;;;;;;;;;;;;29.92;19.99;99969.13;5012911;28;20049;-76
2022/10/28 11:42:55;;;;;;;;;;;;;;;29.66;19.72;99954.72;5008191;28;19918;-78
2022/10/28 11:45:23;;;;;;;;;;;;;;;29.46;19.98;99962.03;5010743;28;19926;-78
2022/10/28 11:47:55;;;;;;;;;;;;;;;29.29;20.30;99959.81;5006458;28;19937;-78
2022/10/28 11:50:29;;;;;;;;;;;;;;;29.18;20.13;99961.22;5010244;28;20452;-80
2022/10/28 11:53:10;;;;;;;;;;;;;;;29.07;20.35;99958.38;5007930;28;20304;-77
2022/10/28 11:55:41;;;;;;;;;;;;;;;28.89;20.83;99962.50;5009576;28;19991;-78
2022/10/28 11:58:25;;;;;;;;;;;;;;;28.78;20.99;99952.38;5005780;28;19952;-77
2022/10/28 12:00:50;;;;;;;;;;;;;;;28.66;21.18;99955.69;5011009;28;20017;-78
2022/10/28 12:03:19;;;;;;;;;;;;;;;28.56;21.30;99957.06;5012204;28;20004;-78
2022/10/28 12:06:10;;;;;;;;;;;;;;;28.42;21.42;99949.00;5012238;28;19975;-78
2022/10/28 12:08:38;;;;;;;;;;;;;;;28.31;21.63;99945.06;5005980;28;20308;-78
2022/10/28 12:11:07;;;;;;;;;;;;;;;28.22;21.77;99938.22;5010270;28;20004;-78
2022/10/28 12:13:35;;;;;;;;;;;;;;;28.18;21.86;99941.53;5011407;28;20388;-77
2022/10/28 12:16:26;;;;;;;;;;;;;;;28.05;22.01;99935.09;5026685;28;19997;-78
2022/10/28 12:18:59;;;;;;;;;;;;;;;27.96;22.27;99926.41;4985513;28;20453;-79
2022/10/28 12:21:27;;;;;;;;;;;;;;;27.85;22.04;99934.16;5013157;28;19917;-79
2022/10/28 12:23:53;;;;;;;;;;;;;;;27.75;22.28;99926.50;5013347;28;19924;-79
2022/10/28 12:26:18;;;;;;;;;;;;;;;27.63;22.23;99926.25;5013308;28;19921;-81
2022/10/28 12:28:44;;;;;;;;;;;;;;;27.44;22.40;99920.59;5013554;28;20384;-79
2022/10/28 12:31:17;;;;;;;;;;;;;;;27.31;22.77;99919.69;5013662;28;20335;-79
2022/10/28 12:33:43;;;;;;;;;;;;;;;27.24;22.67;99914.25;5013412;28;19932;-80
2022/10/28 12:36:11;;;;;;;;;;;;;;;27.17;22.99;99913.41;5013657;28;19963;-80
2022/10/28 12:38:55;;;;;;;;;;;;;;;27.13;23.15;99912.94;5013455;28;19917;-79
2022/10/28 12:41:22;;;;;;;;;;;;;;;27.06;23.39;99909.41;5029440;28;19917;-79